createdAt,value
2022-12-16T00:01:36.541Z,0.30
2022-12-16T00:04:04.709Z,0.40
2022-12-16T00:06:34.843Z,0.40
2022-12-16T00:09:04.071Z,0.50
2022-12-16T00:11:32.616Z,0.50
2022-12-16T00:14:00.746Z,0.50
2022-12-16T00:16:29.086Z,0.50
2022-12-16T00:18:57.236Z,0.50
2022-12-16T00:21:28.658Z,0.60
2022-12-16T00:23:56.884Z,0.60
2022-12-16T00:26:26.404Z,0.60
2022-12-16T00:28:54.799Z,0.60
2022-12-16T00:31:22.915Z,0.70
2022-12-16T00:33:52.859Z,0.70
2022-12-16T00:36:20.706Z,0.70
2022-12-16T00:38:48.611Z,0.70
2022-12-16T00:41:16.465Z,0.70
2022-12-16T00:43:45.692Z,0.70
2022-12-16T00:46:13.653Z,0.70
2022-12-16T00:48:41.533Z,0.70
2022-12-16T00:51:09.365Z,0.70
2022-12-16T00:53:38.276Z,0.80
2022-12-16T03:40:40.502Z,0.40
2022-12-16T03:43:09.756Z,0.40
2022-12-16T03:45:40.041Z,0.40
2022-12-16T03:48:10.046Z,0.40
2022-12-16T03:50:39.355Z,0.40
2022-12-16T03:53:08.250Z,0.40
2022-12-16T03:55:37.845Z,0.40
2022-12-16T03:58:05.728Z,0.30
2022-12-16T04:00:33.771Z,0.30
2022-12-16T04:03:01.808Z,0.30
2022-12-16T04:05:29.954Z,0.20
2022-12-16T04:08:01.894Z,0.30
2022-12-16T04:10:47.518Z,0.30
2022-12-16T04:13:34.570Z,0.30
2022-12-16T04:16:20.447Z,0.30
2022-12-16T04:19:07.042Z,0.30
2022-12-16T04:21:52.827Z,0.40
2022-12-16T04:24:24.164Z,0.30
2022-12-16T04:27:15.293Z,0.30
2022-12-16T04:30:02.724Z,0.30
2022-12-16T04:32:52.160Z,0.20
2022-12-16T04:35:37.856Z,0.10
2022-12-16T04:38:23.417Z,0.10
2022-12-16T04:41:09.078Z,0.10
2022-12-16T04:43:54.751Z,0.10
2022-12-16T04:46:42.049Z,0.00
2022-12-16T04:49:28.102Z,0.00
2022-12-16T04:52:13.628Z,0.00
2022-12-16T04:54:59.183Z,0.00
2022-12-16T04:57:44.859Z,0.00
2022-12-16T05:00:31.312Z,0.00
2022-12-16T05:03:18.821Z,0.00
2022-12-16T05:06:04.173Z,0.00
2022-12-16T05:08:49.957Z,0.00
2022-12-16T05:11:35.476Z,0.00
2022-12-16T05:14:20.825Z,0.00
2022-12-16T05:17:06.500Z,0.00
2022-12-16T05:19:53.290Z,0.00
2022-12-16T05:22:38.973Z,0.00
2022-12-16T05:25:25.949Z,0.00
2022-12-16T05:28:11.815Z,0.00
2022-12-16T05:30:57.437Z,0.00
2022-12-16T05:33:42.929Z,-0.10
2022-12-16T05:36:29.627Z,0.00
2022-12-16T05:39:14.786Z,0.00
2022-12-16T05:41:59.840Z,0.00
2022-12-16T05:44:45.666Z,0.00
2022-12-16T05:47:31.377Z,0.00
2022-12-16T05:50:17.072Z,0.00
2022-12-16T05:53:08.892Z,0.00
2022-12-16T05:55:54.506Z,-0.10
2022-12-16T05:58:40.348Z,-0.20
2022-12-16T06:01:25.722Z,-0.10
2022-12-16T06:04:17.083Z,-0.20
2022-12-16T06:07:03.143Z,-0.10
2022-12-16T06:09:56.066Z,-0.20
2022-12-16T06:12:48.179Z,-0.20
2022-12-16T06:15:34.060Z,-0.20
2022-12-16T06:19:10.181Z,-0.30
2022-12-16T06:21:55.780Z,-0.30
2022-12-16T06:24:41.250Z,-0.30
2022-12-16T06:27:42.676Z,-0.30
2022-12-16T06:30:29.769Z,-0.30
2022-12-16T06:37:26.515Z,-0.30
2022-12-16T06:40:11.935Z,-0.30
2022-12-16T06:43:00.537Z,-0.40
2022-12-16T06:48:46.597Z,-0.50
2022-12-16T06:51:32.014Z,-0.50
2022-12-16T06:54:48.875Z,-0.50
2022-12-16T21:29:38.331Z,-1.90
2022-12-16T21:32:23.753Z,-2.10
2022-12-16T21:35:11.412Z,-2.20
2022-12-16T21:37:57.654Z,-2.20
2022-12-16T21:40:43.298Z,-2.30
2022-12-16T21:43:34.793Z,-2.40
2022-12-16T21:46:23.331Z,-2.50
2022-12-16T21:49:10.926Z,-2.50
2022-12-16T21:51:56.525Z,-2.60
2022-12-16T21:54:42.421Z,-2.70
2022-12-16T21:57:30.267Z,-2.80
2022-12-16T22:00:19.419Z,-2.80
2022-12-16T22:03:06.563Z,-2.80
2022-12-16T22:05:57.031Z,-3.00
2022-12-16T22:08:42.846Z,-3.10
2022-12-16T22:11:28.841Z,-3.20
2022-12-16T22:14:14.621Z,-3.20
2022-12-16T22:17:00.661Z,-3.30
2022-12-16T22:19:58.434Z,-3.50
2022-12-16T22:22:54.610Z,-3.50
2022-12-16T22:25:52.183Z,-3.40
2022-12-16T22:28:41.743Z,-3.40
2022-12-16T22:31:30.670Z,-3.40
2022-12-16T22:34:21.491Z,-3.50
2022-12-16T22:37:14.953Z,-3.60
2022-12-16T22:40:06.582Z,-3.60
2022-12-16T22:42:59.090Z,-3.60
2022-12-16T22:49:00.413Z,-3.80
2022-12-16T22:51:51.133Z,-3.90
2022-12-16T22:54:45.536Z,-4.00
2022-12-16T22:57:40.759Z,-4.00
2022-12-16T23:00:36.184Z,-4.10
2022-12-16T23:03:22.218Z,-4.10
2022-12-16T23:06:07.841Z,-4.10
2022-12-16T23:08:54.105Z,-4.20
2022-12-16T23:11:44.033Z,-4.20
2022-12-16T23:14:29.604Z,-4.20
2022-12-16T23:17:19.057Z,-4.30
2022-12-16T23:20:04.401Z,-4.40
2022-12-16T23:22:49.777Z,-4.30
2022-12-16T23:25:36.067Z,-4.40
2022-12-16T23:28:23.417Z,-4.50
2022-12-16T23:31:19.517Z,-4.50
2022-12-16T23:32:31.375Z,-3.70
2022-12-16T23:34:04.874Z,-4.60
2022-12-16T23:36:50.910Z,-4.60
2022-12-16T23:39:41.373Z,-4.70
2022-12-16T23:42:27.814Z,-4.70
2022-12-16T23:45:21.352Z,-4.70
2022-12-16T23:48:09.122Z,-4.70
2022-12-16T23:50:57.473Z,-4.80
2022-12-16T23:53:46.956Z,-4.70
2022-12-16T23:56:32.659Z,-4.80
2022-12-16T23:59:18.777Z,-4.90
